createdAt,value
2017-12-03T10:26:59.782Z,94676.92
2017-12-03T10:29:29.600Z,94675.02
2017-12-03T10:32:02.818Z,94669.26
2017-12-03T10:34:30.581Z,94665.48
2017-12-03T10:36:59.122Z,94663.06
2017-12-03T10:39:27.824Z,94665.42
2017-12-03T10:41:55.834Z,94657.43
2017-12-03T10:44:24.146Z,94660.01
2017-12-03T10:46:52.983Z,94654.67
2017-12-03T10:49:21.488Z,94657.41
2017-12-03T10:51:51.406Z,94642.77
2017-12-03T10:54:20.821Z,94640.99
2017-12-03T10:56:49.456Z,94634.21
2017-12-03T10:59:17.342Z,94634.65
2017-12-03T11:01:45.162Z,94629.70
2017-12-03T11:04:14.107Z,94632.61
2017-12-03T11:06:42.244Z,94628.45
2017-12-03T11:09:10.317Z,94630.66
2017-12-03T11:11:38.238Z,94630.94
2017-12-03T11:14:07.548Z,94630.27
2017-12-03T11:16:36.289Z,94628.12
2017-12-03T11:19:04.081Z,94633.76
2017-12-03T11:21:31.911Z,94628.80
2017-12-03T11:23:59.708Z,94630.73
2017-12-03T11:26:27.905Z,94621.59
2017-12-03T11:28:56.068Z,94632.19
2017-12-03T11:31:23.914Z,94634.77
2017-12-03T11:33:51.721Z,94632.63
2017-12-03T11:36:19.454Z,94625.48
2017-12-03T11:38:47.397Z,94632.89
2017-12-03T11:41:15.132Z,94631.23
2017-12-03T11:43:42.967Z,94636.16
2017-12-03T11:46:10.737Z,94622.28
2017-12-03T11:48:38.476Z,94626.13
2017-12-03T11:51:06.201Z,94629.66
2017-12-03T11:53:34.016Z,94636.56
2017-12-03T11:56:02.749Z,94628.80
2017-12-03T11:58:30.471Z,94615.61
2017-12-03T12:00:58.358Z,94610.13
2017-12-03T12:03:26.293Z,94613.05
2017-12-03T12:05:55.240Z,94610.32
2017-12-03T12:08:23.598Z,94609.67
2017-12-03T12:10:52.049Z,94608.36
2017-12-03T12:13:20.646Z,94613.09
2017-12-03T12:15:48.519Z,94609.09
2017-12-03T12:18:16.279Z,94610.89
2017-12-03T12:20:44.129Z,94610.80
2017-12-03T12:23:11.929Z,94601.36
2017-12-03T12:25:39.855Z,94602.86
2017-12-03T12:28:07.991Z,94592.78
2017-12-03T12:30:35.895Z,94594.94
2017-12-03T12:33:06.089Z,94591.01
2017-12-03T12:35:34.471Z,94593.39
2017-12-03T12:38:02.382Z,94591.72
2017-12-03T12:40:30.303Z,94587.73
2017-12-03T12:42:58.120Z,94590.59
2017-12-03T12:45:26.875Z,94598.30
2017-12-03T12:47:54.658Z,94595.77
2017-12-03T12:50:22.566Z,94593.85
2017-12-03T12:52:51.430Z,94595.19
2017-12-03T12:55:19.920Z,94582.31
2017-12-03T12:57:47.668Z,94590.11
2017-12-03T13:00:15.645Z,94577.34
2017-12-03T13:02:43.449Z,94577.05
2017-12-03T13:05:13.027Z,94581.48
2017-12-03T13:07:40.867Z,94579.48
2017-12-03T13:10:09.630Z,94579.94
2017-12-03T13:12:37.429Z,94576.34
2017-12-03T13:15:05.189Z,94571.72
2017-12-03T13:17:33.820Z,94570.62
2017-12-03T13:20:01.761Z,94572.18
2017-12-03T13:22:29.508Z,94572.88
2017-12-03T13:24:57.232Z,94574.72
2017-12-03T13:27:25.052Z,94587.93
2017-12-03T13:29:52.809Z,94591.06
2017-12-03T13:32:20.741Z,94589.31
2017-12-03T13:34:48.519Z,94598.61
2017-12-03T13:37:16.522Z,94594.02
2017-12-03T13:39:44.440Z,94598.50
2017-12-03T13:42:12.187Z,94600.73
2017-12-03T13:44:39.892Z,94595.69
2017-12-03T13:47:07.711Z,94602.85
2017-12-03T13:49:35.467Z,94596.84
2017-12-03T13:52:03.276Z,94607.14
2017-12-03T13:54:31.098Z,94600.95
2017-12-03T13:56:58.878Z,94607.72
2017-12-03T13:59:26.662Z,94614.14
2017-12-03T14:01:54.375Z,94610.15
2017-12-03T14:04:22.158Z,94620.56
2017-12-03T14:06:49.877Z,94607.13
2017-12-03T14:09:17.597Z,94623.52
2017-12-03T14:11:45.418Z,94614.46
2017-12-03T14:14:13.250Z,94617.88
2017-12-03T14:16:41.083Z,94621.91
2017-12-03T14:19:08.909Z,94624.86
2017-12-03T14:21:36.733Z,94625.41
2017-12-03T14:24:04.677Z,94613.06
2017-12-03T14:26:32.518Z,94627.22
2017-12-03T14:29:00.372Z,94619.50
2017-12-03T14:31:28.141Z,94617.20
2017-12-03T14:33:56.036Z,94634.08
2017-12-03T14:36:23.956Z,94628.08
2017-12-03T14:38:51.925Z,94632.88
2017-12-03T14:41:19.970Z,94633.00
2017-12-03T14:43:47.744Z,94631.19
2017-12-03T14:46:15.598Z,94627.36
2017-12-03T14:48:43.362Z,94632.87
2017-12-03T14:51:11.201Z,94636.82
2017-12-03T14:53:39.976Z,94643.53
2017-12-03T14:56:07.744Z,94636.28
2017-12-03T14:58:35.477Z,94641.63
2017-12-03T15:01:03.310Z,94643.30
2017-12-03T15:03:31.104Z,94645.81
2017-12-03T15:05:59.042Z,94645.98
2017-12-03T15:08:26.987Z,94643.56
2017-12-03T15:10:54.777Z,94644.91
2017-12-03T15:13:22.587Z,94654.17
2017-12-03T15:15:50.359Z,94654.04
2017-12-03T15:18:18.172Z,94651.29
2017-12-03T15:20:46.195Z,94649.34
2017-12-03T15:23:14.023Z,94652.63
2017-12-03T15:25:41.909Z,94655.75
2017-12-03T15:28:09.770Z,94655.95
2017-12-03T15:30:37.614Z,94655.14
2017-12-03T15:33:05.478Z,94657.35
2017-12-03T15:35:33.257Z,94653.80
2017-12-03T15:38:01.848Z,94658.63
2017-12-03T15:40:29.627Z,94663.66
2017-12-03T15:42:57.479Z,94660.64
2017-12-03T15:45:26.501Z,94656.97
2017-12-03T15:47:55.256Z,94665.55
2017-12-03T15:50:23.091Z,94667.50
2017-12-03T15:52:50.858Z,94678.48
2017-12-03T15:55:18.741Z,94677.55
2017-12-03T15:57:46.532Z,94682.98
2017-12-03T16:00:14.536Z,94673.99
2017-12-03T16:02:42.478Z,94687.42
2017-12-03T16:05:10.525Z,94682.78
2017-12-03T16:07:38.400Z,94688.95
2017-12-03T16:10:06.162Z,94685.31
2017-12-03T16:12:33.986Z,94693.83
2017-12-03T16:15:01.927Z,94697.02
2017-12-03T16:17:29.717Z,94694.96
2017-12-03T16:19:57.483Z,94699.58
2017-12-03T16:22:25.270Z,94697.20
2017-12-03T16:24:53.063Z,94709.18
2017-12-03T16:27:24.567Z,94714.70
2017-12-03T16:29:52.345Z,94721.93
2017-12-03T16:32:20.173Z,94717.78
2017-12-03T16:34:47.995Z,94716.82
2017-12-03T16:37:15.822Z,94710.16
2017-12-03T16:39:43.602Z,94713.70
2017-12-03T16:42:11.331Z,94716.27
2017-12-03T16:44:39.126Z,94720.47
2017-12-03T16:47:06.916Z,94722.91
2017-12-03T16:49:34.787Z,94721.00
2017-12-03T16:52:02.756Z,94727.30
2017-12-03T16:54:30.589Z,94729.13
2017-12-03T16:56:58.366Z,94734.16
2017-12-03T16:59:27.068Z,94730.84
2017-12-03T17:01:55.976Z,94719.79
2017-12-03T17:04:23.897Z,94725.41
2017-12-03T17:06:51.831Z,94724.19
2017-12-03T17:09:19.734Z,94718.25
2017-12-03T17:11:47.737Z,94728.53
2017-12-03T17:14:15.587Z,94729.10
2017-12-03T17:16:43.529Z,94725.55
2017-12-03T17:19:11.396Z,94733.44
2017-12-03T17:21:40.387Z,94724.66
2017-12-03T17:24:08.155Z,94729.88
2017-12-03T17:26:36.065Z,94730.45
2017-12-03T17:29:03.921Z,94727.91
2017-12-03T17:31:31.718Z,94732.48
2017-12-03T17:33:59.867Z,94737.34
2017-12-03T17:36:27.716Z,94740.05
2017-12-03T17:38:55.565Z,94733.66
2017-12-03T17:41:23.548Z,94734.69
2017-12-03T17:43:51.323Z,94739.03
2017-12-03T17:46:19.119Z,94740.10
2017-12-03T17:48:47.519Z,94743.85
2017-12-03T17:51:16.899Z,94739.71
2017-12-03T17:53:45.436Z,94737.35
2017-12-03T17:56:14.118Z,94737.41
2017-12-03T17:58:42.033Z,94734.91
2017-12-03T18:01:09.863Z,94731.22
2017-12-03T18:03:37.768Z,94730.48
2017-12-03T18:06:05.580Z,94727.36
2017-12-03T18:08:33.375Z,94745.38
2017-12-03T18:11:01.085Z,94739.03
2017-12-03T18:13:29.911Z,94741.96
2017-12-03T18:15:58.863Z,94741.73
2017-12-03T18:18:26.670Z,94741.50
2017-12-03T18:20:54.723Z,94751.55
2017-12-03T18:23:22.561Z,94744.08
2017-12-03T18:25:50.410Z,94744.17
2017-12-03T18:28:19.178Z,94743.99
2017-12-03T18:30:46.903Z,94750.39
2017-12-03T18:33:15.829Z,94752.36
2017-12-03T18:35:43.664Z,94760.48
2017-12-03T18:38:11.577Z,94761.14
2017-12-03T18:40:39.441Z,94758.46
2017-12-03T18:43:07.298Z,94764.92
2017-12-03T18:45:36.071Z,94765.84
2017-12-03T18:48:03.955Z,94763.65
2017-12-03T18:50:32.334Z,94775.88
2017-12-03T18:53:01.297Z,94770.75
2017-12-03T18:55:29.179Z,94776.88
2017-12-03T18:57:57.031Z,94772.54
2017-12-03T19:00:25.062Z,94775.08
2017-12-03T19:02:54.312Z,94780.27
2017-12-03T19:05:22.410Z,94779.74
2017-12-03T19:07:50.249Z,94784.97
2017-12-03T19:10:18.052Z,94785.72
2017-12-03T19:12:47.418Z,94787.45
2017-12-03T19:15:15.163Z,94788.94
2017-12-03T19:17:44.257Z,94789.56
2017-12-03T19:20:16.070Z,94790.19
2017-12-03T19:22:46.932Z,94790.48
2017-12-03T19:25:16.053Z,94790.14
2017-12-03T19:27:44.003Z,94798.05
2017-12-03T19:30:11.983Z,94799.80
2017-12-03T19:32:40.207Z,94801.08
2017-12-03T19:35:09.718Z,94806.80
2017-12-03T19:37:40.261Z,94807.16
2017-12-03T19:40:08.198Z,94814.27
2017-12-03T19:42:37.599Z,94815.08
2017-12-03T19:45:09.338Z,94807.89
2017-12-03T19:47:37.446Z,94814.20
2017-12-03T19:50:06.760Z,94815.87
2017-12-03T19:52:35.525Z,94811.34
2017-12-03T19:55:06.212Z,94813.01
2017-12-03T19:57:35.082Z,94820.91
2017-12-03T20:00:04.299Z,94814.60
2017-12-03T20:02:37.374Z,94821.13
2017-12-03T20:05:08.943Z,94819.88
2017-12-03T20:07:40.176Z,94822.41
2017-12-03T20:10:09.676Z,94818.77
2017-12-03T20:12:38.709Z,94816.69
2017-12-03T20:15:07.050Z,94819.48
2017-12-03T20:17:38.694Z,94828.49
2017-12-03T20:20:08.050Z,94826.88
2017-12-03T20:22:40.541Z,94822.27
2017-12-03T20:25:09.973Z,94830.14
2017-12-03T20:27:43.321Z,94833.28
2017-12-03T20:30:12.507Z,94842.13
2017-12-03T20:32:44.422Z,94835.92
2017-12-03T20:35:13.990Z,94830.98
2017-12-03T20:37:53.453Z,94830.73
2017-12-03T20:40:30.777Z,94830.63
2017-12-03T20:47:42.181Z,94830.67
2017-12-03T20:50:32.718Z,94836.36
2017-12-03T20:53:17.733Z,94831.66
2017-12-03T20:55:58.524Z,94825.09
2017-12-03T20:58:37.148Z,94825.84
2017-12-03T21:05:44.345Z,94829.53
2017-12-03T21:08:20.952Z,94825.84
2017-12-03T21:10:50.451Z,94829.85
2017-12-03T21:13:35.343Z,94838.36
2017-12-03T21:16:21.859Z,94836.28
2017-12-03T21:33:49.150Z,94828.98
2017-12-03T21:42:25.417Z,94834.78
2017-12-03T21:48:13.440Z,94841.61
2017-12-03T21:50:41.964Z,94828.16
2017-12-03T21:53:09.924Z,94838.11
2017-12-03T21:56:30.746Z,94837.14
2017-12-03T21:59:20.593Z,94837.08
2017-12-03T22:22:44.269Z,94835.75
2017-12-03T22:25:32.565Z,94835.80
2017-12-03T22:31:04.727Z,94828.52
2017-12-03T22:36:20.851Z,94826.40
2017-12-03T22:38:59.517Z,94827.89
2017-12-03T22:41:29.641Z,94830.42
2017-12-03T22:44:08.078Z,94834.02
2017-12-03T22:46:36.477Z,94821.14
2017-12-03T22:49:08.410Z,94826.69
2017-12-03T22:51:37.817Z,94814.11
2017-12-03T22:54:11.104Z,94827.27
2017-12-03T22:56:38.919Z,94827.39
2017-12-03T22:59:07.775Z,94831.64
2017-12-03T23:01:35.457Z,94826.97
2017-12-03T23:04:05.160Z,94826.62
2017-12-03T23:06:33.184Z,94825.64
2017-12-03T23:09:01.709Z,94829.67
2017-12-03T23:11:29.458Z,94825.53
2017-12-03T23:13:57.531Z,94828.70
2017-12-03T23:16:25.294Z,94824.15
2017-12-03T23:18:52.966Z,94817.19
2017-12-03T23:21:21.596Z,94814.41
2017-12-03T23:23:50.158Z,94815.65
2017-12-03T23:26:18.835Z,94822.13
2017-12-03T23:28:46.585Z,94815.84
2017-12-03T23:31:15.370Z,94815.48
2017-12-03T23:33:43.262Z,94806.34
2017-12-03T23:36:11.048Z,94819.08
2017-12-03T23:38:38.809Z,94813.64
2017-12-03T23:41:06.694Z,94814.86
2017-12-03T23:43:34.470Z,94811.04
2017-12-03T23:46:02.876Z,94815.27
2017-12-03T23:48:30.684Z,94812.27
2017-12-03T23:50:58.446Z,94811.98
2017-12-03T23:53:26.196Z,94815.27
2017-12-03T23:55:53.947Z,94813.20
2017-12-03T23:58:21.807Z,94809.95
